Albertville, Wisconsin
Current Conditions -  °F | °C
As of 6:15 PM on Saturday 25 Oct 2014 (Local Time) from KLUM Reporting Station
Clear Clear  
Wind Chill: 58°   Ceiling: Unl
Heat Index: 58°   Visibility: 10mi
Dew Point: 24°   Wind: 10mph
Humidity: 28%   Direction: 280°W
Pressure: 29.99"   Gusts: NA
Location:  45.0099°N, 91.7075°W
Report Text: KLUM 252315Z AUTO 28009KT 10SM CLR 14/M04 A2999 RMK AO2 T01431043
Loading
Personal Weather Stations






























Interactive Weather Map
Tropical Storm Tracking
New forecast layout! Learn more

10-Day Weather Forecast

Advertisements
Track Severe Weather on mobile